Time;durP1;ratioP1;P1;durP2;ratioP2;P2;SDS_P1;SDS_P2;PMS_P1;PMS_P2;Temp;Humidity;BMP_temperature;BMP_pressure;BME280_temperature;BME280_humidity;BME280_pressure;Samples;Min_cycle;Max_cycle;Signal;HPM_P1;HPM_P2
2022/06/29 00:01:17;;;;;;;4.93;4.43;;;15.80;99.90;;;;;;4149895;28;20178;-73
2022/06/29 00:03:17;;;;;;;7.00;5.27;;;15.70;99.90;;;;;;4150269;28;20252;-73
2022/06/29 00:05:21;;;;;;;5.23;4.23;;;15.70;99.90;;;;;;4150274;28;20312;-72
2022/06/29 00:07:22;;;;;;;6.03;5.43;;;15.70;99.90;;;;;;4150165;28;20224;-74
2022/06/29 00:09:22;;;;;;;6.37;4.73;;;15.70;99.90;;;;;;4150037;28;20185;-72
2022/06/29 00:11:23;;;;;;;5.57;5.07;;;15.60;99.90;;;;;;4149350;28;20182;-73
2022/06/29 00:13:23;;;;;;;5.30;4.80;;;15.60;99.90;;;;;;4151220;28;20181;-72
2022/06/29 00:15:24;;;;;;;6.03;5.43;;;15.50;99.90;;;;;;4150559;28;20186;-72
2022/06/29 00:17:24;;;;;;;5.63;5.13;;;15.50;99.90;;;;;;4150612;28;20312;-72
2022/06/29 00:19:25;;;;;;;5.17;4.73;;;15.40;99.90;;;;;;4149162;28;20193;-72
2022/06/29 00:21:25;;;;;;;5.80;5.30;;;15.40;99.90;;;;;;4131251;28;20269;-73
2022/06/29 00:23:26;;;;;;;5.70;5.20;;;15.40;99.90;;;;;;4149019;28;20182;-72
2022/06/29 00:25:26;;;;;;;6.03;5.43;;;15.30;99.90;;;;;;4149070;28;20213;-73
2022/06/29 00:27:27;;;;;;;5.63;5.13;;;15.30;99.90;;;;;;4149311;28;20273;-72
2022/06/29 00:29:28;;;;;;;6.47;5.87;;;15.20;99.90;;;;;;4149096;28;20181;-73
2022/06/29 00:31:29;;;;;;;6.07;5.47;;;15.20;99.90;;;;;;4147965;28;20265;-72
2022/06/29 00:33:29;;;;;;;6.83;5.43;;;15.10;99.90;;;;;;4148295;28;20876;-72
2022/06/29 00:35:30;;;;;;;7.40;6.10;;;15.00;99.90;;;;;;4130488;28;20201;-74
2022/06/29 00:37:30;;;;;;;6.23;5.63;;;15.00;99.90;;;;;;4147771;28;20280;-73
2022/06/29 00:39:32;;;;;;;6.47;5.87;;;14.90;99.90;;;;;;4147894;28;20228;-72
2022/06/29 00:41:41;;;;;;;6.20;5.60;;;15.00;99.90;;;;;;4147175;28;20188;-72
2022/06/29 00:43:42;;;;;;;8.27;6.57;;;14.90;99.90;;;;;;4130544;28;20277;-73
2022/06/29 00:45:43;;;;;;;8.33;6.90;;;14.80;99.90;;;;;;4146772;28;20206;-73
2022/06/29 00:47:43;;;;;;;9.03;7.53;;;14.80;99.90;;;;;;4147889;28;20177;-72
2022/06/29 00:49:44;;;;;;;11.53;7.63;;;14.80;99.90;;;;;;4147837;28;20276;-72
2022/06/29 00:51:53;;;;;;;7.77;7.07;;;14.70;99.90;;;;;;4129360;28;20214;-72
2022/06/29 00:53:55;;;;;;;7.50;6.80;;;14.80;99.90;;;;;;4147623;28;20177;-72
2022/06/29 00:55:58;;;;;;;8.00;7.10;;;14.70;99.90;;;;;;4147599;28;20185;-72
2022/06/29 00:58:03;;;;;;;8.03;7.23;;;14.80;99.90;;;;;;4147566;28;20216;-72
2022/06/29 01:00:04;;;;;;;7.67;6.70;;;14.70;99.90;;;;;;4130241;28;20589;-73
2022/06/29 01:02:05;;;;;;;8.93;8.03;;;14.70;99.90;;;;;;4146558;28;20206;-73
2022/06/29 01:04:06;;;;;;;7.87;7.10;;;14.60;99.90;;;;;;4147456;28;20938;-73
2022/06/29 01:06:07;;;;;;;10.30;7.57;;;14.60;99.90;;;;;;4147324;28;20341;-72
2022/06/29 01:08:08;;;;;;;9.67;7.77;;;14.50;99.90;;;;;;4147532;28;20739;-72
2022/06/29 01:10:08;;;;;;;9.53;8.43;;;14.50;99.90;;;;;;4147141;28;20173;-73
2022/06/29 01:12:10;;;;;;;8.10;7.30;;;14.50;99.90;;;;;;4146632;28;20197;-73
2022/06/29 01:14:15;;;;;;;9.10;8.20;;;14.50;99.90;;;;;;4129590;28;20286;-73
2022/06/29 01:16:15;;;;;;;10.90;8.80;;;14.50;99.90;;;;;;4129612;28;20214;-72
2022/06/29 01:18:16;;;;;;;9.00;8.07;;;14.50;99.90;;;;;;4147091;28;20174;-72
2022/06/29 01:20:16;;;;;;;10.77;8.87;;;14.50;99.90;;;;;;4147338;28;20264;-73
2022/06/29 01:22:23;;;;;;;8.90;8.00;;;14.40;99.90;;;;;;4129100;28;20735;-72
2022/06/29 01:24:24;;;;;;;10.60;9.03;;;14.40;99.90;;;;;;4147106;28;20185;-72
2022/06/29 01:26:24;;;;;;;8.60;7.70;;;14.40;99.90;;;;;;4147126;28;20201;-72
2022/06/29 01:28:25;;;;;;;9.60;8.70;;;14.40;99.90;;;;;;4147058;28;20213;-72
2022/06/29 01:30:26;;;;;;;8.87;7.77;;;14.30;99.90;;;;;;4147006;28;20712;-72
2022/06/29 01:32:26;;;;;;;8.87;7.97;;;14.30;99.90;;;;;;4128797;28;20280;-73
2022/06/29 01:34:29;;;;;;;9.63;8.33;;;14.30;99.90;;;;;;4146926;28;20249;-73
2022/06/29 01:36:29;;;;;;;8.87;7.60;;;14.20;99.90;;;;;;4146984;28;20181;-74
2022/06/29 01:38:30;;;;;;;9.53;8.63;;;14.20;99.90;;;;;;4147073;28;20185;-74
2022/06/29 01:40:30;;;;;;;8.93;7.90;;;14.10;99.90;;;;;;4146844;28;20178;-74
2022/06/29 01:42:31;;;;;;;8.47;7.67;;;14.10;99.90;;;;;;4146244;28;20201;-73
2022/06/29 01:44:33;;;;;;;9.20;7.97;;;14.10;99.90;;;;;;4129163;28;20308;-73
2022/06/29 01:46:34;;;;;;;8.30;7.50;;;14.00;99.90;;;;;;4146739;28;20178;-74
2022/06/29 01:48:34;;;;;;;9.97;7.80;;;14.00;99.90;;;;;;4146890;28;20186;-74
2022/06/29 01:50:35;;;;;;;9.37;8.13;;;13.90;99.90;;;;;;4146955;28;20208;-74
2022/06/29 01:52:35;;;;;;;8.50;7.67;;;13.90;99.90;;;;;;4145519;28;20205;-74
2022/06/29 01:54:36;;;;;;;9.23;8.33;;;13.90;99.90;;;;;;4146507;28;20536;-74
2022/06/29 01:56:37;;;;;;;11.43;8.90;;;13.90;99.90;;;;;;4129149;28;20716;-74
2022/06/29 01:58:37;;;;;;;8.73;7.93;;;13.90;99.90;;;;;;4146483;28;20348;-74
2022/06/29 02:00:38;;;;;;;9.23;7.47;;;13.90;99.90;;;;;;4146362;28;20194;-74
2022/06/29 02:02:38;;;;;;;9.17;7.80;;;13.90;99.90;;;;;;4128691;28;20212;-74
2022/06/29 02:04:39;;;;;;;9.03;8.13;;;13.90;99.90;;;;;;4145867;28;20214;-74
2022/06/29 02:06:40;;;;;;;10.27;7.83;;;13.80;99.90;;;;;;4146576;28;20177;-73
2022/06/29 02:08:40;;;;;;;9.00;8.10;;;13.80;99.90;;;;;;4139044;28;20198;-76
2022/06/29 02:10:41;;;;;;;9.23;8.33;;;13.80;99.90;;;;;;4145775;28;20247;-74
2022/06/29 02:12:41;;;;;;;8.93;8.13;;;13.80;99.90;;;;;;4146122;28;20692;-74
2022/06/29 02:14:42;;;;;;;9.37;7.63;;;13.80;99.90;;;;;;4146398;28;20189;-74
2022/06/29 02:16:42;;;;;;;12.27;10.10;;;13.70;99.90;;;;;;4146421;28;20261;-74
2022/06/29 02:18:43;;;;;;;9.47;8.47;;;13.70;99.90;;;;;;4147705;28;20186;-73
2022/06/29 02:20:44;;;;;;;10.27;8.17;;;13.70;99.90;;;;;;4144587;28;20221;-74
2022/06/29 02:22:45;;;;;;;11.13;8.93;;;13.70;99.90;;;;;;4146713;28;20206;-73
2022/06/29 02:24:45;;;;;;;8.87;7.87;;;13.70;99.90;;;;;;4145145;28;20217;-74
2022/06/29 02:26:46;;;;;;;11.27;9.73;;;13.70;99.90;;;;;;4146043;28;20249;-73
2022/06/29 02:28:47;;;;;;;11.40;9.20;;;13.60;99.90;;;;;;4146640;28;20611;-73
2022/06/29 02:35:25;;;;;;;8.60;7.80;;;13.50;99.90;;;;;;4146656;28;20189;-73
2022/06/29 02:37:26;;;;;;;12.43;8.43;;;13.50;99.90;;;;;;4146384;28;20928;-73
2022/06/29 02:39:27;;;;;;;10.17;8.50;;;13.40;99.90;;;;;;4146381;28;20710;-74
2022/06/29 02:41:27;;;;;;;9.13;7.93;;;13.40;99.90;;;;;;4145893;28;20656;-73
2022/06/29 02:43:28;;;;;;;11.07;8.47;;;13.40;99.90;;;;;;4146391;28;20181;-73
2022/06/29 02:45:29;;;;;;;9.10;8.07;;;13.40;99.90;;;;;;4146166;28;20217;-73
2022/06/29 02:47:29;;;;;;;9.00;7.97;;;13.40;99.90;;;;;;4146047;28;20328;-73
2022/06/29 02:49:30;;;;;;;9.27;8.37;;;13.40;99.90;;;;;;4146730;28;20188;-73
2022/06/29 02:51:30;;;;;;;9.70;8.70;;;13.30;99.90;;;;;;4145414;28;20213;-73
2022/06/29 02:53:31;;;;;;;10.00;8.90;;;13.30;99.90;;;;;;4146159;28;20201;-73
2022/06/29 02:55:32;;;;;;;9.90;8.67;;;13.40;99.90;;;;;;4146094;28;20236;-73
2022/06/29 02:57:32;;;;;;;8.60;7.40;;;13.40;99.90;;;;;;4146174;28;20190;-74
2022/06/29 02:59:33;;;;;;;9.10;8.17;;;13.40;99.90;;;;;;4146078;28;20220;-73
2022/06/29 03:01:33;;;;;;;11.13;8.80;;;13.30;99.90;;;;;;4127956;28;20873;-75
2022/06/29 03:03:34;;;;;;;12.43;9.50;;;13.30;99.90;;;;;;4146124;28;20186;-75
2022/06/29 03:05:34;;;;;;;10.80;9.70;;;13.30;99.90;;;;;;4146082;28;20213;-75
2022/06/29 03:07:35;;;;;;;12.00;10.10;;;13.30;99.90;;;;;;4146248;28;20174;-75
2022/06/29 03:09:35;;;;;;;12.97;10.67;;;13.20;99.90;;;;;;4148015;28;20288;-75
2022/06/29 03:11:36;;;;;;;13.57;10.47;;;13.20;99.90;;;;;;4148580;28;20648;-73
2022/06/29 03:13:37;;;;;;;14.03;10.97;;;13.20;99.90;;;;;;4131502;28;20186;-75
2022/06/29 03:15:38;;;;;;;13.27;10.87;;;13.20;99.90;;;;;;4149230;28;20205;-75
2022/06/29 03:17:38;;;;;;;15.43;10.67;;;13.20;99.90;;;;;;4149214;28;20193;-74
2022/06/29 03:19:39;;;;;;;11.53;9.93;;;13.20;99.90;;;;;;4131487;28;20928;-75
2022/06/29 03:21:39;;;;;;;12.43;9.87;;;13.20;99.90;;;;;;4148172;28;20214;-75
2022/06/29 03:23:40;;;;;;;11.47;9.57;;;13.20;99.90;;;;;;4131185;28;20252;-75
2022/06/29 03:25:41;;;;;;;17.03;10.73;;;13.20;99.90;;;;;;4148852;28;20633;-76
2022/06/29 03:27:42;;;;;;;11.57;10.30;;;13.20;99.90;;;;;;4148905;28;20185;-75
2022/06/29 03:29:43;;;;;;;15.20;11.30;;;13.20;99.90;;;;;;4148697;28;20978;-75
2022/06/29 03:31:44;;;;;;;12.33;10.20;;;13.20;99.90;;;;;;4130634;28;20226;-75
2022/06/29 03:33:44;;;;;;;12.80;10.40;;;13.30;99.90;;;;;;4148706;28;20205;-75
2022/06/29 03:35:45;;;;;;;13.33;10.90;;;13.30;99.90;;;;;;4148660;28;20269;-75
2022/06/29 03:37:45;;;;;;;14.70;10.93;;;13.20;99.90;;;;;;4148762;28;20182;-75
2022/06/29 03:39:46;;;;;;;13.73;11.40;;;13.10;99.90;;;;;;4148576;28;20213;-75
2022/06/29 03:41:46;;;;;;;12.83;11.03;;;13.10;99.90;;;;;;4147989;28;20209;-75
2022/06/29 03:43:47;;;;;;;12.20;10.33;;;13.10;99.90;;;;;;4148627;28;20188;-75
2022/06/29 03:45:47;;;;;;;15.63;12.50;;;13.10;99.90;;;;;;4148441;28;20851;-75
2022/06/29 03:47:49;;;;;;;15.63;11.60;;;13.20;99.90;;;;;;4148581;28;20196;-75
2022/06/29 03:49:50;;;;;;;13.30;10.97;;;13.20;99.90;;;;;;4148600;28;20181;-75
2022/06/29 03:51:50;;;;;;;13.43;11.00;;;13.20;99.90;;;;;;4147105;28;20235;-75
2022/06/29 03:53:51;;;;;;;12.40;10.63;;;13.20;99.90;;;;;;4148668;28;20181;-75
2022/06/29 03:55:52;;;;;;;11.80;9.23;;;13.20;99.90;;;;;;4130853;28;20186;-75
2022/06/29 03:57:52;;;;;;;12.47;9.37;;;13.20;99.90;;;;;;4148319;28;20217;-75
2022/06/29 03:59:53;;;;;;;9.93;8.53;;;13.20;99.90;;;;;;4148293;28;20320;-75
2022/06/29 04:01:53;;;;;;;10.87;8.27;;;13.10;99.90;;;;;;4147392;28;20549;-75
2022/06/29 04:03:54;;;;;;;8.03;7.23;;;13.10;99.90;;;;;;4148214;28;20190;-75
2022/06/29 04:05:55;;;;;;;8.37;7.50;;;13.20;99.90;;;;;;4130779;28;20214;-74
2022/06/29 04:07:55;;;;;;;8.43;7.63;;;13.20;99.90;;;;;;4147784;28;20182;-75
2022/06/29 04:09:59;;;;;;;10.57;8.70;;;13.10;99.90;;;;;;4148073;28;20536;-75
2022/06/29 04:12:00;;;;;;;15.30;10.77;;;13.10;99.90;;;;;;4129784;28;20313;-75
2022/06/29 04:14:00;;;;;;;11.47;9.13;;;13.00;99.90;;;;;;4133510;28;20166;-75
2022/06/29 04:16:01;;;;;;;11.80;10.07;;;13.00;99.90;;;;;;4133815;28;20213;-75
2022/06/29 04:18:02;;;;;;;9.33;7.97;;;13.00;99.90;;;;;;4150721;28;20178;-75
2022/06/29 04:20:04;;;;;;;10.57;8.53;;;13.00;99.90;;;;;;4133233;28;20222;-75
2022/06/29 04:22:05;;;;;;;10.37;9.23;;;13.00;99.90;;;;;;4150235;28;20209;-76
2022/06/29 04:24:06;;;;;;;9.07;8.17;;;13.00;99.90;;;;;;4147761;28;20228;-75
2022/06/29 04:26:06;;;;;;;10.73;8.57;;;13.10;99.90;;;;;;4142671;28;20257;-75
2022/06/29 04:28:07;;;;;;;10.07;8.90;;;13.10;99.90;;;;;;4149469;28;20174;-75
2022/06/29 04:30:08;;;;;;;11.33;9.13;;;13.10;99.90;;;;;;4151171;28;20182;-75
2022/06/29 04:32:10;;;;;;;10.70;9.20;;;13.20;99.90;;;;;;4150704;28;20194;-75
2022/06/29 04:34:10;;;;;;;11.50;10.23;;;13.30;99.90;;;;;;4151486;28;20178;-75
2022/06/29 04:36:11;;;;;;;14.47;11.13;;;13.30;99.90;;;;;;4151342;28;20319;-75
2022/06/29 04:38:12;;;;;;;11.60;9.83;;;13.40;99.90;;;;;;4151150;28;20186;-75
2022/06/29 04:40:12;;;;;;;11.07;9.87;;;13.50;99.90;;;;;;4151071;28;20189;-74
2022/06/29 04:42:13;;;;;;;10.00;8.80;;;13.50;99.90;;;;;;4150254;28;20688;-75
2022/06/29 04:44:14;;;;;;;8.17;7.30;;;13.70;99.90;;;;;;4133639;28;20197;-76
2022/06/29 04:46:22;;;;;;;8.50;7.60;;;13.70;99.90;;;;;;4133684;28;20214;-75
2022/06/29 04:48:23;;;;;;;10.57;7.93;;;13.80;99.90;;;;;;4151796;28;20181;-75
2022/06/29 04:50:23;;;;;;;9.27;7.83;;;13.70;99.90;;;;;;4131612;28;20193;-75
2022/06/29 04:52:24;;;;;;;10.77;9.10;;;13.70;99.90;;;;;;4147867;28;20220;-76
2022/06/29 04:54:25;;;;;;;11.60;10.10;;;13.70;99.90;;;;;;4130787;28;20685;-76
2022/06/29 04:56:28;;;;;;;10.37;8.70;;;13.70;99.90;;;;;;4148245;28;20174;-76
2022/06/29 04:58:28;;;;;;;10.33;8.60;;;13.70;99.90;;;;;;4130400;28;20183;-76
2022/06/29 05:00:29;;;;;;;9.67;8.67;;;13.70;99.90;;;;;;4147255;28;20289;-75
2022/06/29 05:02:29;;;;;;;13.80;9.90;;;13.70;99.90;;;;;;4146590;28;20205;-76
2022/06/29 05:04:30;;;;;;;11.03;9.47;;;13.80;99.90;;;;;;4147122;28;20186;-76
2022/06/29 05:06:30;;;;;;;11.13;9.17;;;13.90;99.90;;;;;;4147114;28;20606;-76
2022/06/29 05:08:31;;;;;;;10.77;9.40;;;14.00;99.90;;;;;;4146925;28;20186;-76
2022/06/29 05:10:32;;;;;;;11.23;9.93;;;14.20;99.90;;;;;;4147212;28;20653;-76
2022/06/29 05:12:32;;;;;;;10.90;9.60;;;14.20;99.90;;;;;;4146434;28;20194;-76
2022/06/29 05:14:33;;;;;;;10.30;9.20;;;14.20;99.90;;;;;;4147094;28;20185;-76
2022/06/29 05:16:33;;;;;;;11.63;9.77;;;14.20;99.90;;;;;;4146946;28;20236;-76
2022/06/29 05:18:34;;;;;;;10.53;9.27;;;14.20;99.90;;;;;;4147143;28;20192;-76
2022/06/29 05:20:35;;;;;;;11.40;9.77;;;14.30;99.90;;;;;;4147086;28;20185;-76
2022/06/29 05:22:36;;;;;;;13.17;10.37;;;14.30;99.90;;;;;;4146165;28;20198;-76
2022/06/29 05:24:36;;;;;;;9.43;8.43;;;14.40;99.90;;;;;;4146705;28;20197;-76
2022/06/29 05:26:37;;;;;;;9.47;8.53;;;14.40;99.90;;;;;;4146905;28;20179;-76
2022/06/29 05:28:39;;;;;;;9.73;8.40;;;14.50;99.90;;;;;;4146734;28;20182;-76
2022/06/29 05:30:40;;;;;;;9.80;8.83;;;14.60;99.90;;;;;;4146663;28;20265;-76
2022/06/29 05:32:41;;;;;;;10.17;8.60;;;14.70;99.90;;;;;;4128170;28;20217;-76
2022/06/29 05:34:41;;;;;;;9.30;8.17;;;14.80;99.90;;;;;;4146773;28;20189;-75
2022/06/29 05:36:42;;;;;;;8.80;7.90;;;14.80;99.90;;;;;;4146801;28;20187;-76
2022/06/29 05:38:42;;;;;;;10.47;9.33;;;14.90;99.90;;;;;;4129079;28;20271;-76
2022/06/29 05:40:44;;;;;;;8.97;8.07;;;14.90;99.90;;;;;;4146155;28;20192;-75
2022/06/29 05:42:45;;;;;;;11.37;8.37;;;15.00;99.90;;;;;;4146564;28;20710;-75
2022/06/29 05:44:45;;;;;;;9.27;7.77;;;15.00;99.90;;;;;;4146482;28;21006;-76
2022/06/29 05:46:46;;;;;;;8.97;8.00;;;15.10;99.90;;;;;;4146510;28;20185;-77
2022/06/29 05:48:46;;;;;;;8.63;7.73;;;15.10;99.90;;;;;;4128969;28;20178;-77
2022/06/29 05:50:47;;;;;;;9.43;7.27;;;15.30;99.90;;;;;;4145412;28;20208;-76
2022/06/29 05:52:48;;;;;;;8.60;7.27;;;15.30;99.90;;;;;;4146543;28;20205;-75
2022/06/29 05:54:48;;;;;;;9.57;8.57;;;15.40;99.90;;;;;;4146385;28;20189;-76
2022/06/29 05:56:49;;;;;;;8.83;7.93;;;15.50;99.90;;;;;;4129017;28;20658;-75
2022/06/29 05:58:49;;;;;;;8.33;7.53;;;15.60;99.90;;;;;;4146568;28;20584;-75
2022/06/29 06:00:50;;;;;;;7.77;7.07;;;15.70;99.90;;;;;;4145906;28;20188;-76
2022/06/29 06:02:50;;;;;;;7.70;6.93;;;15.80;99.90;;;;;;4146375;28;20193;-76
2022/06/29 06:04:52;;;;;;;7.40;6.70;;;15.90;99.90;;;;;;4146204;28;20218;-76
2022/06/29 06:06:52;;;;;;;7.67;6.40;;;16.00;99.90;;;;;;4128920;28;20190;-76
2022/06/29 06:08:53;;;;;;;7.00;6.40;;;16.20;99.90;;;;;;4146232;28;20273;-75
2022/06/29 06:10:54;;;;;;;6.20;5.60;;;16.30;99.90;;;;;;4145820;28;20166;-75
2022/06/29 06:12:54;;;;;;;7.87;7.10;;;16.60;99.90;;;;;;4146490;28;20202;-75
2022/06/29 06:14:59;;;;;;;6.00;5.40;;;16.80;99.90;;;;;;4128950;28;20186;-76
2022/06/29 06:16:59;;;;;;;6.33;5.03;;;17.00;99.90;;;;;;4128665;28;20188;-75
2022/06/29 06:19:00;;;;;;;4.70;4.30;;;17.10;99.90;;;;;;4145978;28;20217;-75
2022/06/29 06:21:01;;;;;;;4.50;4.00;;;17.20;99.90;;;;;;4145474;28;20590;-76
2022/06/29 06:23:02;;;;;;;5.90;4.00;;;17.30;99.90;;;;;;4128445;28;20672;-75
2022/06/29 06:25:03;;;;;;;5.73;3.60;;;17.40;99.90;;;;;;4145927;28;20263;-75
2022/06/29 06:27:04;;;;;;;5.63;4.27;;;17.40;99.90;;;;;;4122523;28;20618;-75
2022/06/29 06:29:04;;;;;;;4.30;3.43;;;17.50;99.90;;;;;;4140203;28;20239;-75
2022/06/29 06:31:07;;;;;;;4.40;3.70;;;17.60;99.90;;;;;;4145322;28;20182;-75
2022/06/29 06:33:07;;;;;;;13.27;12.47;;;17.70;99.60;;;;;;4146063;28;20205;-76
2022/06/29 06:35:08;;;;;;;4.13;3.10;;;17.70;99.10;;;;;;4145975;28;20201;-76
2022/06/29 06:37:09;;;;;;;7.67;3.60;;;17.70;99.40;;;;;;4145796;28;20178;-76
2022/06/29 06:39:09;;;;;;;8.97;8.37;;;17.70;99.80;;;;;;4128240;28;20685;-76
2022/06/29 06:41:22;;;;;;;3.87;3.50;;;17.70;98.90;;;;;;4145121;28;20231;-76
2022/06/29 06:43:23;;;;;;;4.43;4.03;;;17.80;97.80;;;;;;4144979;28;20182;-76
2022/06/29 06:45:24;;;;;;;4.67;3.30;;;17.90;97.00;;;;;;4160824;28;20212;-76
2022/06/29 06:47:24;;;;;;;4.30;3.43;;;18.00;96.50;;;;;;4128522;28;20182;-76
2022/06/29 06:49:25;;;;;;;4.10;3.20;;;18.10;96.30;;;;;;4145194;28;20660;-76
2022/06/29 06:51:26;;;;;;;4.63;4.03;;;18.20;95.70;;;;;;4145118;28;20268;-76
2022/06/29 06:53:26;;;;;;;4.47;2.93;;;18.40;95.00;;;;;;4145256;28;20220;-76
2022/06/29 06:55:27;;;;;;;26.90;25.13;;;18.50;94.60;;;;;;4145513;28;20189;-76
2022/06/29 06:57:28;;;;;;;4.83;4.37;;;18.50;92.80;;;;;;4132832;28;20182;-76
2022/06/29 06:59:29;;;;;;;5.37;4.87;;;18.50;93.10;;;;;;4138431;28;20194;-77
2022/06/29 07:01:29;;;;;;;4.10;2.80;;;18.60;92.70;;;;;;4144738;28;20196;-75
2022/06/29 07:03:31;;;;;;;3.70;2.67;;;18.70;92.90;;;;;;4145615;28;20181;-76
2022/06/29 07:05:31;;;;;;;3.40;2.80;;;18.80;92.50;;;;;;4145537;28;20667;-75
2022/06/29 07:07:32;;;;;;;6.03;5.60;;;18.80;92.40;;;;;;4145567;28;20178;-77
2022/06/29 07:09:33;;;;;;;3.93;3.53;;;19.00;92.10;;;;;;4143567;28;20206;-74
2022/06/29 07:11:34;;;;;;;6.53;3.40;;;19.20;91.70;;;;;;4141224;28;20190;-69
2022/06/29 07:13:35;;;;;;;3.27;2.70;;;19.40;91.00;;;;;;4147767;28;20190;-75
2022/06/29 07:15:35;;;;;;;4.23;2.80;;;19.40;92.30;;;;;;4144483;28;20272;-73
2022/06/29 07:17:36;;;;;;;3.23;2.50;;;19.30;93.00;;;;;;4142418;28;20194;-73
2022/06/29 07:19:36;;;;;;;4.10;2.53;;;19.50;91.50;;;;;;4144041;28;20217;-72
2022/06/29 07:21:37;;;;;;;4.37;2.57;;;19.70;90.30;;;;;;4143516;28;20181;-72
2022/06/29 07:23:37;;;;;;;3.63;2.80;;;19.60;86.50;;;;;;4144132;28;20213;-72
2022/06/29 07:25:38;;;;;;;2.77;2.57;;;19.60;88.60;;;;;;4144075;28;20718;-73
2022/06/29 07:27:38;;;;;;;3.20;2.50;;;19.60;90.20;;;;;;4142964;28;20219;-72
2022/06/29 07:29:39;;;;;;;3.20;2.90;;;19.80;86.50;;;;;;4144290;28;20710;-72
2022/06/29 07:31:40;;;;;;;6.80;3.40;;;19.90;82.40;;;;;;4143621;28;20188;-72
2022/06/29 07:33:40;;;;;;;5.70;5.30;;;20.10;81.80;;;;;;4143193;28;20181;-72
2022/06/29 07:35:41;;;;;;;3.60;2.70;;;20.10;80.30;;;;;;4145408;28;20273;-72
2022/06/29 07:37:42;;;;;;;3.13;2.70;;;20.20;81.50;;;;;;4145326;28;20236;-72
2022/06/29 07:39:43;;;;;;;4.60;2.83;;;20.60;80.10;;;;;;4144014;28;20243;-72
2022/06/29 07:41:43;;;;;;;3.60;3.30;;;20.90;79.90;;;;;;4144640;28;20206;-72
2022/06/29 07:43:44;;;;;;;9.30;8.80;;;21.30;75.60;;;;;;4145401;28;20291;-72
2022/06/29 07:45:45;;;;;;;35.73;33.93;;;21.40;74.60;;;;;;4145326;28;20634;-72
2022/06/29 07:47:45;;;;;;;5.27;4.87;;;21.40;74.60;;;;;;4144865;28;20177;-71
2022/06/29 07:49:46;;;;;;;2.70;2.50;;;21.10;74.30;;;;;;4145442;28;20181;-71
2022/06/29 07:51:47;;;;;;;3.20;2.53;;;21.00;75.40;;;;;;4144471;28;20281;-71
2022/06/29 07:53:48;;;;;;;3.43;2.90;;;21.20;75.60;;;;;;4145164;28;20170;-72
2022/06/29 07:55:48;;;;;;;8.97;8.47;;;21.10;74.30;;;;;;4147359;28;20184;-71
2022/06/29 07:57:50;;;;;;;4.60;4.23;;;20.90;74.40;;;;;;4148217;28;20681;-71
2022/06/29 07:59:50;;;;;;;13.50;12.60;;;20.80;74.80;;;;;;4148256;28;20227;-71
2022/06/29 08:01:51;;;;;;;4.20;3.70;;;20.70;74.10;;;;;;4147522;28;20235;-71
2022/06/29 08:03:53;;;;;;;4.00;3.10;;;20.80;74.80;;;;;;4147662;28;20181;-71
2022/06/29 08:05:54;;;;;;;12.57;11.80;;;20.70;75.80;;;;;;4148098;28;20208;-71
2022/06/29 08:07:54;;;;;;;4.00;3.00;;;20.50;76.30;;;;;;4148136;28;20182;-71
2022/06/29 08:09:55;;;;;;;4.20;3.90;;;20.50;77.60;;;;;;4148060;28;20205;-71
2022/06/29 08:11:55;;;;;;;3.00;2.80;;;20.40;77.60;;;;;;4147564;28;20198;-71
2022/06/29 08:13:56;;;;;;;2.67;2.47;;;20.40;78.80;;;;;;4148075;28;20185;-71
2022/06/29 08:15:57;;;;;;;2.77;2.57;;;20.40;79.50;;;;;;4130637;28;20186;-71
2022/06/29 08:17:57;;;;;;;3.43;3.17;;;20.60;78.10;;;;;;4130587;28;20621;-69
2022/06/29 08:19:58;;;;;;;2.77;2.57;;;20.40;78.00;;;;;;4148134;28;20668;-71
2022/06/29 08:21:59;;;;;;;3.97;2.60;;;20.50;77.60;;;;;;4147528;28;20198;-72
2022/06/29 08:23:59;;;;;;;2.70;2.50;;;20.60;77.30;;;;;;4147883;28;20181;-71
2022/06/29 08:26:00;;;;;;;3.53;2.60;;;20.60;79.30;;;;;;4147899;28;20676;-71
2022/06/29 08:28:01;;;;;;;3.23;2.70;;;20.60;80.60;;;;;;4147982;28;20672;-71
2022/06/29 08:30:01;;;;;;;6.37;4.23;;;21.00;77.60;;;;;;4147852;28;20174;-71
2022/06/29 08:32:02;;;;;;;4.30;2.67;;;21.10;77.50;;;;;;4147138;28;20240;-71
2022/06/29 08:34:10;;;;;;;5.47;2.50;;;21.40;74.80;;;;;;4147688;28;20601;-71
2022/06/29 08:36:10;;;;;;;2.57;2.20;;;21.70;70.20;;;;;;4147725;28;20181;-71
2022/06/29 08:38:11;;;;;;;9.30;3.27;;;21.80;70.80;;;;;;4147803;28;20265;-71
2022/06/29 08:40:15;;;;;;;2.63;2.40;;;21.80;69.70;;;;;;4147646;28;20190;-71
2022/06/29 08:42:20;;;;;;;3.83;3.30;;;22.00;70.10;;;;;;4147024;28;20205;-71
2022/06/29 08:44:21;;;;;;;3.00;2.70;;;22.20;67.60;;;;;;4147670;28;20263;-71
2022/06/29 08:46:22;;;;;;;3.47;2.53;;;22.40;67.70;;;;;;4147841;28;20217;-72
2022/06/29 08:48:22;;;;;;;2.70;2.50;;;22.40;67.40;;;;;;4147668;28;20178;-71
2022/06/29 08:50:23;;;;;;;3.77;2.27;;;22.10;68.50;;;;;;4130170;28;20180;-72
2022/06/29 08:52:25;;;;;;;2.83;2.63;;;22.20;68.50;;;;;;4146851;28;20207;-70
2022/06/29 08:54:26;;;;;;;2.50;2.27;;;22.60;68.30;;;;;;4147635;28;20745;-70
2022/06/29 08:56:27;;;;;;;3.70;2.73;;;22.70;68.60;;;;;;4147788;28;20216;-70
2022/06/29 08:58:28;;;;;;;2.73;2.53;;;22.90;65.90;;;;;;4147569;28;20182;-70
2022/06/29 09:00:29;;;;;;;4.17;2.70;;;22.70;64.10;;;;;;4147529;28;20601;-70
2022/06/29 09:02:30;;;;;;;3.20;3.00;;;22.70;64.30;;;;;;4146630;28;20205;-71
2022/06/29 09:04:31;;;;;;;9.27;8.57;;;23.00;64.10;;;;;;4147353;28;20178;-70
2022/06/29 09:06:31;;;;;;;3.60;3.30;;;22.80;63.10;;;;;;4146564;28;20189;-70
2022/06/29 09:08:33;;;;;;;2.87;2.57;;;22.20;65.70;;;;;;4147508;28;20229;-70
2022/06/29 09:10:33;;;;;;;2.93;2.40;;;21.90;66.10;;;;;;4147349;28;20196;-70
2022/06/29 09:12:34;;;;;;;4.37;2.63;;;22.00;66.50;;;;;;4148693;28;20189;-70
2022/06/29 09:14:34;;;;;;;4.10;2.70;;;21.70;66.90;;;;;;4149755;28;20178;-70
2022/06/29 09:16:56;;;;;;;3.30;3.00;;;21.60;68.40;;;;;;4148182;28;20189;-69
2022/06/29 09:18:58;;;;;;;5.40;3.33;;;21.80;68.70;;;;;;4148265;28;20557;-70
2022/06/29 09:21:03;;;;;;;3.00;2.80;;;21.50;69.10;;;;;;4147397;28;20182;-69
2022/06/29 09:23:04;;;;;;;3.30;3.00;;;21.30;70.00;;;;;;4148148;28;20194;-69
2022/06/29 09:25:19;;;;;;;3.57;2.73;;;21.40;70.30;;;;;;4147946;28;20244;-69
2022/06/29 09:27:23;;;;;;;3.07;2.80;;;21.40;68.70;;;;;;4148117;28;20181;-73
2022/06/29 09:29:29;;;;;;;3.40;3.10;;;21.20;69.30;;;;;;4147884;28;20180;-68
2022/06/29 09:31:29;;;;;;;3.00;2.70;;;21.10;70.80;;;;;;4129739;28;20208;-68
2022/06/29 09:33:31;;;;;;;3.50;2.80;;;21.30;69.30;;;;;;4148146;28;20696;-69
2022/06/29 09:35:33;;;;;;;3.57;2.50;;;21.50;68.80;;;;;;4147981;28;20692;-69
2022/06/29 09:37:33;;;;;;;2.93;2.63;;;21.60;67.90;;;;;;4148118;28;20178;-69
2022/06/29 09:39:45;;;;;;;4.40;3.93;;;21.70;68.50;;;;;;4147353;28;20184;-69
2022/06/29 09:41:46;;;;;;;2.60;2.40;;;22.20;66.80;;;;;;4147063;28;20212;-68
2022/06/29 09:43:47;;;;;;;4.63;4.33;;;22.20;67.20;;;;;;4147734;28;20257;-69
2022/06/29 09:45:48;;;;;;;3.10;2.50;;;22.50;65.50;;;;;;4147734;28;20218;-69
2022/06/29 09:47:49;;;;;;;3.07;2.70;;;22.40;64.70;;;;;;4147712;28;20166;-69
2022/06/29 09:49:54;;;;;;;3.10;2.77;;;22.30;65.60;;;;;;4147637;28;20316;-68
2022/06/29 09:51:56;;;;;;;3.73;3.43;;;22.20;66.20;;;;;;4146811;28;20209;-69
2022/06/29 09:54:03;;;;;;;3.13;2.67;;;22.40;65.20;;;;;;4147757;28;20186;-69
2022/06/29 09:56:06;;;;;;;3.50;3.07;;;22.50;64.00;;;;;;4129904;28;20186;-68
2022/06/29 09:58:08;;;;;;;3.13;2.53;;;22.60;61.80;;;;;;4147621;28;20526;-69
2022/06/29 10:02:35;;;;;;;3.33;3.03;;;22.50;62.70;;;;;;4146572;28;20231;-69
2022/06/29 10:04:35;;;;;;;3.27;2.50;;;22.50;62.80;;;;;;4147156;28;20556;-69
2022/06/29 10:06:37;;;;;;;3.90;2.83;;;22.60;63.50;;;;;;4147450;28;20182;-69
2022/06/29 10:08:38;;;;;;;2.60;2.40;;;22.80;63.20;;;;;;4147594;28;20206;-69
2022/06/29 10:10:43;;;;;;;7.20;6.70;;;23.40;62.00;;;;;;4147048;28;20546;-68
2022/06/29 10:15:32;;;;;;;2.80;2.60;;;24.20;58.00;;;;;;4146551;28;20184;-69
2022/06/29 10:18:12;;;;;;;6.17;5.70;;;24.90;54.40;;;;;;4146528;28;20177;-69
2022/06/29 10:20:23;;;;;;;4.43;2.80;;;25.00;54.10;;;;;;4146635;28;20185;-68
2022/06/29 10:22:23;;;;;;;4.53;3.03;;;25.20;53.00;;;;;;4145928;28;20606;-68
2022/06/29 10:24:25;;;;;;;3.07;2.77;;;24.60;55.20;;;;;;4129020;28;20185;-69
2022/06/29 10:26:32;;;;;;;4.23;2.70;;;25.00;53.00;;;;;;4146124;28;20244;-68
2022/06/29 10:28:33;;;;;;;4.10;2.47;;;25.70;52.70;;;;;;4146142;28;20557;-68
2022/06/29 10:30:34;;;;;;;5.43;3.87;;;25.90;52.80;;;;;;4146238;28;20166;-68
2022/06/29 10:32:35;;;;;;;41.33;39.10;;;26.50;50.00;;;;;;4145722;28;20201;-68
2022/06/29 10:35:06;;;;;;;4.83;4.43;;;26.60;47.60;;;;;;4146021;28;20710;-68
2022/06/29 10:37:15;;;;;;;3.60;2.20;;;26.30;49.20;;;;;;4145986;28;20196;-67
2022/06/29 10:39:15;;;;;;;7.13;6.63;;;26.40;49.20;;;;;;4145924;28;20169;-67